Snoqualmie River: Snoqualmie Falls station

back to: Snoqualmie river
Snoqualmie Falls station Summary - (NOAA Hydrograph: SQUW1)
flood stage: 12.88 ft
Latest reading:
Mon04/22 09:25 am 6.53 ft 3521 cfs (steady)
Past 24hr max:
Sun04/21 09:30 am 6.98 ft 4188 cfs
Forecasted crests: (published Mon 04/22/19 08:52 am)
Tue04/23 05:00 pm 8.11 ft 6175 cfs
Fri04/26 11:00 am 6.36 ft 3299 cfs
Mon04/29 11:00 am 5.76 ft 2586 cfs

Snoqualmie Falls station Details

Latest Readings

Last 100 Readings:
Mon04/22 09:25 am 6.53 ft 3521 cfs
Mon04/22 09:20 am 6.53 ft 3521 cfs
Mon04/22 09:15 am 6.51 ft 3492 cfs
Mon04/22 09:10 am 6.53 ft 3521 cfs
Mon04/22 09:05 am 6.53 ft 3521 cfs
Mon04/22 09:00 am 6.52 ft 3506 cfs
Mon04/22 08:55 am 6.52 ft 3506 cfs
Mon04/22 08:50 am 6.55 ft 3549 cfs
Mon04/22 08:45 am 6.53 ft 3521 cfs
Mon04/22 08:40 am 6.53 ft 3521 cfs
Mon04/22 08:35 am 6.54 ft 3535 cfs
Mon04/22 08:30 am 6.53 ft 3521 cfs
Mon04/22 08:25 am 6.53 ft 3521 cfs
Mon04/22 08:20 am 6.54 ft 3535 cfs
Mon04/22 08:15 am 6.55 ft 3549 cfs
Mon04/22 08:10 am 6.55 ft 3549 cfs
Mon04/22 08:05 am 6.54 ft 3535 cfs
Mon04/22 08:00 am 6.54 ft 3535 cfs
Mon04/22 07:55 am 6.55 ft 3549 cfs
Mon04/22 07:50 am 6.53 ft 3521 cfs
Mon04/22 07:45 am 6.54 ft 3535 cfs
Mon04/22 07:40 am 6.56 ft 3563 cfs
Mon04/22 07:35 am 6.56 ft 3563 cfs
Mon04/22 07:30 am 6.56 ft 3563 cfs
Mon04/22 07:25 am 6.55 ft 3549 cfs
Mon04/22 07:20 am 6.54 ft 3535 cfs
Mon04/22 07:15 am 6.55 ft 3549 cfs
Mon04/22 07:10 am 6.55 ft 3549 cfs
Mon04/22 07:05 am 6.56 ft 3563 cfs
Mon04/22 07:00 am 6.55 ft 3549 cfs
Mon04/22 06:55 am 6.56 ft 3563 cfs
Mon04/22 06:50 am 6.56 ft 3563 cfs
Mon04/22 06:45 am 6.55 ft 3549 cfs
Mon04/22 06:40 am 6.56 ft 3563 cfs
Mon04/22 06:35 am 6.56 ft 3563 cfs
Mon04/22 06:30 am 6.55 ft 3549 cfs
Mon04/22 06:25 am 6.56 ft 3563 cfs
Mon04/22 06:20 am 6.56 ft 3563 cfs
Mon04/22 06:15 am 6.57 ft 3577 cfs
Mon04/22 06:10 am 6.58 ft 3591 cfs
Mon04/22 06:05 am 6.57 ft 3577 cfs
Mon04/22 06:00 am 6.57 ft 3577 cfs
Mon04/22 05:55 am 6.56 ft 3563 cfs
Mon04/22 05:50 am 6.56 ft 3563 cfs
Mon04/22 05:45 am 6.57 ft 3577 cfs
Mon04/22 05:40 am 6.56 ft 3563 cfs
Mon04/22 05:35 am 6.58 ft 3591 cfs
Mon04/22 05:30 am 6.58 ft 3591 cfs
Mon04/22 05:25 am 6.58 ft 3591 cfs
Mon04/22 05:20 am 6.57 ft 3577 cfs
Mon04/22 05:15 am 6.58 ft 3591 cfs
Mon04/22 05:10 am 6.58 ft 3591 cfs
Mon04/22 05:05 am 6.57 ft 3577 cfs
Mon04/22 05:00 am 6.57 ft 3577 cfs
Mon04/22 04:55 am 6.57 ft 3577 cfs
Mon04/22 04:50 am 6.59 ft 3606 cfs
Mon04/22 04:45 am 6.58 ft 3591 cfs
Mon04/22 04:40 am 6.58 ft 3591 cfs
Mon04/22 04:35 am 6.57 ft 3577 cfs
Mon04/22 04:30 am 6.59 ft 3606 cfs
Mon04/22 04:25 am 6.59 ft 3606 cfs
Mon04/22 04:20 am 6.59 ft 3606 cfs
Mon04/22 04:15 am 6.58 ft 3591 cfs
Mon04/22 04:10 am 6.6 ft 3620 cfs
Mon04/22 04:05 am 6.58 ft 3591 cfs
Mon04/22 04:00 am 6.59 ft 3606 cfs
Mon04/22 03:55 am 6.58 ft 3591 cfs
Mon04/22 03:50 am 6.59 ft 3606 cfs
Mon04/22 03:45 am 6.59 ft 3606 cfs
Mon04/22 03:40 am 6.59 ft 3606 cfs
Mon04/22 03:35 am 6.59 ft 3606 cfs
Mon04/22 03:30 am 6.59 ft 3606 cfs
Mon04/22 03:25 am 6.58 ft 3591 cfs
Mon04/22 03:20 am 6.6 ft 3620 cfs
Mon04/22 03:15 am 6.6 ft 3620 cfs
Mon04/22 03:10 am 6.6 ft 3620 cfs
Mon04/22 03:05 am 6.6 ft 3620 cfs
Mon04/22 03:00 am 6.6 ft 3620 cfs
Mon04/22 02:55 am 6.59 ft 3606 cfs
Mon04/22 02:50 am 6.6 ft 3620 cfs
Mon04/22 02:45 am 6.59 ft 3606 cfs
Mon04/22 02:40 am 6.59 ft 3606 cfs
Mon04/22 02:35 am 6.6 ft 3620 cfs
Mon04/22 02:30 am 6.6 ft 3620 cfs
Mon04/22 02:25 am 6.61 ft 3634 cfs
Mon04/22 02:20 am 6.59 ft 3606 cfs
Mon04/22 02:15 am 6.6 ft 3620 cfs
Mon04/22 02:10 am 6.61 ft 3634 cfs
Mon04/22 02:05 am 6.6 ft 3620 cfs
Mon04/22 02:00 am 6.6 ft 3620 cfs
Mon04/22 01:55 am 6.61 ft 3634 cfs
Mon04/22 01:50 am 6.6 ft 3620 cfs
Mon04/22 01:45 am 6.6 ft 3620 cfs
Mon04/22 01:40 am 6.6 ft 3620 cfs
Mon04/22 01:35 am 6.61 ft 3634 cfs
Mon04/22 01:30 am 6.6 ft 3620 cfs
Mon04/22 01:25 am 6.62 ft 3649 cfs
Mon04/22 01:20 am 6.6 ft 3620 cfs
Mon04/22 01:15 am 6.61 ft 3634 cfs
Mon04/22 01:10 am 6.6 ft 3620 cfs

Latest Forecasts

Currently Forecasted Readings:
Mon04/22 11:00 am 6.45 ft 3419 cfs
Mon04/22 05:00 pm 6.36 ft 3292 cfs
Mon04/22 11:00 pm 6.54 ft 3537 cfs
Tue04/23 05:00 am 7.12 ft 4408 cfs
Tue04/23 11:00 am 7.8 ft 5578 cfs
Tue04/23 05:00 pm 8.11 ft 6175 cfs
Tue04/23 11:00 pm 8.0 ft 5950 cfs
Wed04/24 05:00 am 7.73 ft 5448 cfs
Wed04/24 11:00 am 7.41 ft 4891 cfs
Wed04/24 05:00 pm 7.09 ft 4360 cfs
Wed04/24 11:00 pm 6.83 ft 3960 cfs
Thu04/25 05:00 am 6.67 ft 3718 cfs
Thu04/25 11:00 am 6.53 ft 3514 cfs
Thu04/25 05:00 pm 6.37 ft 3309 cfs
Thu04/25 11:00 pm 6.29 ft 3217 cfs
Fri04/26 05:00 am 6.34 ft 3271 cfs
Fri04/26 11:00 am 6.36 ft 3299 cfs
Fri04/26 05:00 pm 6.27 ft 3189 cfs
Fri04/26 11:00 pm 6.17 ft 3064 cfs
Sat04/27 05:00 am 6.12 ft 3000 cfs
Sat04/27 11:00 am 6.06 ft 2927 cfs
Sat04/27 05:00 pm 5.94 ft 2797 cfs
Sat04/27 11:00 pm 5.83 ft 2673 cfs
Sun04/28 05:00 am 5.77 ft 2605 cfs
Sun04/28 11:00 am 5.71 ft 2535 cfs
Sun04/28 05:00 pm 5.58 ft 2400 cfs
Sun04/28 11:00 pm 5.53 ft 2340 cfs
Mon04/29 05:00 am 5.63 ft 2456 cfs
Mon04/29 11:00 am 5.76 ft 2586 cfs
Mon04/29 05:00 pm 5.75 ft 2579 cfs
Mon04/29 11:00 pm 5.68 ft 2502 cfs
Tue04/30 05:00 am 5.65 ft 2468 cfs
Tue04/30 11:00 am 5.62 ft 2439 cfs
Tue04/30 05:00 pm 5.59 ft 2408 cfs
Tue04/30 11:00 pm 5.77 ft 2597 cfs
Wed05/01 05:00 am 6.18 ft 3072 cfs
Wed05/01 11:00 am 6.46 ft 3425 cfs
Wed05/01 05:00 pm 6.48 ft 3452 cfs
Wed05/01 11:00 pm 6.51 ft 3495 cfs
Thu05/02 05:00 am 6.58 ft 3584 cfs

Snoqualmie River flood gauge data supplied by the
National Weather Service Northwest River Forecast Center.

Sign up for Floodzilla alerts.